Terminal Aerodrome Forecast
Issued by NWS

Home | Current Version | Previous Version | Text Only | Print | Product List | Glossary On
Versions: 1 2 3 4 5 6 7 8 9 10 11 12 13 14 15 16 17 18 19
000
FTUS45 KTFX 160500
TAFCTB
TAF
KCTB 160535Z 1606/1706 35010KT P6SM VCSH SCT010 OVC020
     FM161800 09010KT P6SM VCSH BKN035 OVC050
     FM170000 14010KT P6SM BKN050 BKN070=

USA.gov is the U.S. government's official web portal to all federal, state and local government web resources and services.